sensor_id;sensor_type;location;lat;lon;timestamp;P1;durP1;ratioP1;P2;durP2;ratioP2
74369;SDS011;71062;44.520;11.342;2023-10-09T00:02:06;9.88;;;4.13;;
74369;SDS011;71062;44.520;11.342;2023-10-09T00:04:33;8.18;;;4.05;;
74369;SDS011;71062;44.520;11.342;2023-10-09T00:07:02;11.68;;;4.28;;
74369;SDS011;71062;44.520;11.342;2023-10-09T00:11:58;9.07;;;4.05;;
74369;SDS011;71062;44.520;11.342;2023-10-09T00:14:26;12.63;;;4.25;;
74369;SDS011;71062;44.520;11.342;2023-10-09T00:17:04;9.27;;;4.38;;
74369;SDS011;71062;44.520;11.342;2023-10-09T00:19:36;10.82;;;4.90;;
74369;SDS011;71062;44.520;11.342;2023-10-09T00:22:02;10.07;;;3.83;;
74369;SDS011;71062;44.520;11.342;2023-10-09T00:24:48;10.93;;;4.38;;
74369;SDS011;71062;44.520;11.342;2023-10-09T00:27:16;9.52;;;4.07;;
74369;SDS011;71062;44.520;11.342;2023-10-09T00:29:46;7.70;;;4.07;;
74369;SDS011;71062;44.520;11.342;2023-10-09T00:32:13;11.70;;;4.35;;
74369;SDS011;71062;44.520;11.342;2023-10-09T00:34:43;8.23;;;3.75;;
74369;SDS011;71062;44.520;11.342;2023-10-09T00:37:09;9.02;;;4.18;;
74369;SDS011;71062;44.520;11.342;2023-10-09T00:39:44;10.43;;;3.78;;
74369;SDS011;71062;44.520;11.342;2023-10-09T00:42:10;8.63;;;3.97;;
74369;SDS011;71062;44.520;11.342;2023-10-09T00:44:40;13.98;;;3.90;;
74369;SDS011;71062;44.520;11.342;2023-10-09T00:47:07;8.50;;;3.63;;
74369;SDS011;71062;44.520;11.342;2023-10-09T00:49:59;8.10;;;3.95;;
74369;SDS011;71062;44.520;11.342;2023-10-09T00:52:37;11.75;;;4.03;;
74369;SDS011;71062;44.520;11.342;2023-10-09T00:55:15;11.95;;;4.75;;
74369;SDS011;71062;44.520;11.342;2023-10-09T00:57:54;9.45;;;3.95;;
74369;SDS011;71062;44.520;11.342;2023-10-09T01:00:23;8.88;;;4.00;;
74369;SDS011;71062;44.520;11.342;2023-10-09T01:03:08;11.57;;;4.40;;
74369;SDS011;71062;44.520;11.342;2023-10-09T01:05:46;9.45;;;4.15;;
74369;SDS011;71062;44.520;11.342;2023-10-09T01:08:42;16.25;;;4.10;;
74369;SDS011;71062;44.520;11.342;2023-10-09T01:11:11;9.48;;;4.00;;
74369;SDS011;71062;44.520;11.342;2023-10-09T01:13:46;11.07;;;4.53;;
74369;SDS011;71062;44.520;11.342;2023-10-09T01:16:19;13.63;;;4.20;;
74369;SDS011;71062;44.520;11.342;2023-10-09T01:18:53;10.82;;;3.67;;
74369;SDS011;71062;44.520;11.342;2023-10-09T01:21:22;11.35;;;4.00;;
74369;SDS011;71062;44.520;11.342;2023-10-09T01:23:56;10.52;;;3.92;;
74369;SDS011;71062;44.520;11.342;2023-10-09T01:26:32;7.32;;;3.72;;
74369;SDS011;71062;44.520;11.342;2023-10-09T01:29:05;14.40;;;4.28;;
74369;SDS011;71062;44.520;11.342;2023-10-09T01:31:36;13.10;;;4.13;;
74369;SDS011;71062;44.520;11.342;2023-10-09T01:34:09;12.02;;;3.88;;
74369;SDS011;71062;44.520;11.342;2023-10-09T01:36:38;7.15;;;3.25;;
74369;SDS011;71062;44.520;11.342;2023-10-09T01:39:05;8.98;;;4.15;;
74369;SDS011;71062;44.520;11.342;2023-10-09T01:41:54;10.98;;;4.32;;
74369;SDS011;71062;44.520;11.342;2023-10-09T01:44:27;10.20;;;3.90;;
74369;SDS011;71062;44.520;11.342;2023-10-09T01:47:02;9.70;;;3.92;;
74369;SDS011;71062;44.520;11.342;2023-10-09T01:52:08;10.90;;;4.00;;
74369;SDS011;71062;44.520;11.342;2023-10-09T01:54:44;9.77;;;4.07;;
74369;SDS011;71062;44.520;11.342;2023-10-09T01:57:15;8.27;;;4.22;;
74369;SDS011;71062;44.520;11.342;2023-10-09T02:02:18;9.98;;;3.90;;
74369;SDS011;71062;44.520;11.342;2023-10-09T02:05:00;11.15;;;4.32;;
74369;SDS011;71062;44.520;11.342;2023-10-09T02:07:40;10.15;;;3.60;;
74369;SDS011;71062;44.520;11.342;2023-10-09T02:10:09;10.50;;;3.83;;
74369;SDS011;71062;44.520;11.342;2023-10-09T02:12:53;8.40;;;3.58;;
74369;SDS011;71062;44.520;11.342;2023-10-09T02:15:27;16.70;;;4.57;;
74369;SDS011;71062;44.520;11.342;2023-10-09T02:18:10;9.60;;;3.20;;
74369;SDS011;71062;44.520;11.342;2023-10-09T02:23:24;9.10;;;3.97;;
74369;SDS011;71062;44.520;11.342;2023-10-09T02:25:58;11.75;;;4.00;;
74369;SDS011;71062;44.520;11.342;2023-10-09T02:28:30;11.45;;;4.07;;
74369;SDS011;71062;44.520;11.342;2023-10-09T02:30:58;10.75;;;4.35;;
74369;SDS011;71062;44.520;11.342;2023-10-09T02:33:26;11.63;;;3.95;;
74369;SDS011;71062;44.520;11.342;2023-10-09T02:35:56;10.38;;;3.85;;
74369;SDS011;71062;44.520;11.342;2023-10-09T02:38:25;14.05;;;4.50;;
74369;SDS011;71062;44.520;11.342;2023-10-09T02:40:51;9.50;;;4.78;;
74369;SDS011;71062;44.520;11.342;2023-10-09T02:43:30;13.68;;;4.70;;
74369;SDS011;71062;44.520;11.342;2023-10-09T02:46:09;12.27;;;4.38;;
74369;SDS011;71062;44.520;11.342;2023-10-09T02:48:42;10.60;;;4.65;;
74369;SDS011;71062;44.520;11.342;2023-10-09T02:51:11;9.82;;;4.43;;
74369;SDS011;71062;44.520;11.342;2023-10-09T02:53:46;12.23;;;4.32;;
74369;SDS011;71062;44.520;11.342;2023-10-09T02:56:15;11.88;;;4.65;;
74369;SDS011;71062;44.520;11.342;2023-10-09T02:58:42;12.73;;;4.93;;
74369;SDS011;71062;44.520;11.342;2023-10-09T03:01:11;10.75;;;4.97;;
74369;SDS011;71062;44.520;11.342;2023-10-09T03:03:41;11.55;;;4.93;;
74369;SDS011;71062;44.520;11.342;2023-10-09T03:06:11;15.65;;;5.25;;
74369;SDS011;71062;44.520;11.342;2023-10-09T03:08:44;9.65;;;4.65;;
74369;SDS011;71062;44.520;11.342;2023-10-09T03:11:13;12.88;;;4.40;;
74369;SDS011;71062;44.520;11.342;2023-10-09T03:13:42;13.50;;;4.82;;
74369;SDS011;71062;44.520;11.342;2023-10-09T03:16:13;12.38;;;4.50;;
74369;SDS011;71062;44.520;11.342;2023-10-09T03:18:47;14.13;;;5.13;;
74369;SDS011;71062;44.520;11.342;2023-10-09T03:21:15;12.52;;;5.07;;
74369;SDS011;71062;44.520;11.342;2023-10-09T03:23:46;11.32;;;4.30;;
74369;SDS011;71062;44.520;11.342;2023-10-09T03:26:16;10.30;;;4.50;;
74369;SDS011;71062;44.520;11.342;2023-10-09T03:28:47;10.90;;;4.40;;
74369;SDS011;71062;44.520;11.342;2023-10-09T03:31:13;9.93;;;5.35;;
74369;SDS011;71062;44.520;11.342;2023-10-09T03:33:39;11.23;;;4.18;;
74369;SDS011;71062;44.520;11.342;2023-10-09T03:36:05;10.68;;;4.55;;
74369;SDS011;71062;44.520;11.342;2023-10-09T03:38:37;16.08;;;4.90;;
74369;SDS011;71062;44.520;11.342;2023-10-09T03:41:04;12.70;;;4.97;;
74369;SDS011;71062;44.520;11.342;2023-10-09T03:43:37;14.02;;;5.25;;
74369;SDS011;71062;44.520;11.342;2023-10-09T03:46:05;10.15;;;5.18;;
74369;SDS011;71062;44.520;11.342;2023-10-09T03:48:33;11.73;;;4.88;;
74369;SDS011;71062;44.520;11.342;2023-10-09T03:51:04;9.60;;;4.68;;
74369;SDS011;71062;44.520;11.342;2023-10-09T03:53:46;19.25;;;5.10;;
74369;SDS011;71062;44.520;11.342;2023-10-09T03:56:19;12.40;;;4.05;;
74369;SDS011;71062;44.520;11.342;2023-10-09T03:58:49;14.88;;;4.80;;
74369;SDS011;71062;44.520;11.342;2023-10-09T04:01:16;12.27;;;5.15;;
74369;SDS011;71062;44.520;11.342;2023-10-09T04:03:59;12.40;;;4.65;;
74369;SDS011;71062;44.520;11.342;2023-10-09T04:06:26;13.30;;;5.03;;
74369;SDS011;71062;44.520;11.342;2023-10-09T04:09:02;12.52;;;4.40;;
74369;SDS011;71062;44.520;11.342;2023-10-09T04:11:50;12.60;;;4.90;;
74369;SDS011;71062;44.520;11.342;2023-10-09T04:14:36;16.67;;;5.05;;
74369;SDS011;71062;44.520;11.342;2023-10-09T04:17:12;12.43;;;4.57;;
74369;SDS011;71062;44.520;11.342;2023-10-09T04:19:44;12.07;;;5.60;;
74369;SDS011;71062;44.520;11.342;2023-10-09T04:22:31;11.25;;;4.50;;
74369;SDS011;71062;44.520;11.342;2023-10-09T04:25:16;14.10;;;4.50;;
74369;SDS011;71062;44.520;11.342;2023-10-09T04:27:56;12.00;;;4.97;;
74369;SDS011;71062;44.520;11.342;2023-10-09T04:30:38;10.98;;;5.32;;
74369;SDS011;71062;44.520;11.342;2023-10-09T04:33:19;12.38;;;4.68;;
74369;SDS011;71062;44.520;11.342;2023-10-09T04:36:09;16.35;;;5.57;;
74369;SDS011;71062;44.520;11.342;2023-10-09T04:38:58;10.65;;;4.10;;
74369;SDS011;71062;44.520;11.342;2023-10-09T04:41:30;17.70;;;4.57;;
74369;SDS011;71062;44.520;11.342;2023-10-09T04:44:08;16.60;;;5.03;;
74369;SDS011;71062;44.520;11.342;2023-10-09T04:46:50;17.98;;;5.10;;
74369;SDS011;71062;44.520;11.342;2023-10-09T04:49:36;12.05;;;4.35;;
74369;SDS011;71062;44.520;11.342;2023-10-09T04:52:27;9.60;;;3.42;;
74369;SDS011;71062;44.520;11.342;2023-10-09T04:54:58;10.80;;;3.72;;
74369;SDS011;71062;44.520;11.342;2023-10-09T04:57:38;14.70;;;3.67;;
74369;SDS011;71062;44.520;11.342;2023-10-09T05:00:14;14.30;;;4.43;;
74369;SDS011;71062;44.520;11.342;2023-10-09T05:03:07;9.27;;;3.63;;
74369;SDS011;71062;44.520;11.342;2023-10-09T05:05:38;14.73;;;4.43;;
74369;SDS011;71062;44.520;11.342;2023-10-09T05:08:08;9.98;;;3.58;;
74369;SDS011;71062;44.520;11.342;2023-10-09T05:10:48;11.40;;;3.38;;
74369;SDS011;71062;44.520;11.342;2023-10-09T05:13:29;10.65;;;3.50;;
74369;SDS011;71062;44.520;11.342;2023-10-09T05:16:15;13.43;;;3.40;;
74369;SDS011;71062;44.520;11.342;2023-10-09T05:18:48;13.27;;;3.83;;
74369;SDS011;71062;44.520;11.342;2023-10-09T05:21:34;11.77;;;3.17;;
74369;SDS011;71062;44.520;11.342;2023-10-09T05:24:00;10.25;;;3.17;;
74369;SDS011;71062;44.520;11.342;2023-10-09T05:29:12;11.98;;;3.63;;
74369;SDS011;71062;44.520;11.342;2023-10-09T05:31:51;9.95;;;3.03;;
74369;SDS011;71062;44.520;11.342;2023-10-09T05:34:36;13.60;;;4.00;;
74369;SDS011;71062;44.520;11.342;2023-10-09T05:37:20;12.25;;;3.47;;
74369;SDS011;71062;44.520;11.342;2023-10-09T05:39:55;13.70;;;2.88;;
74369;SDS011;71062;44.520;11.342;2023-10-09T05:42:30;10.20;;;3.08;;
74369;SDS011;71062;44.520;11.342;2023-10-09T05:45:05;9.57;;;3.00;;
74369;SDS011;71062;44.520;11.342;2023-10-09T05:47:47;9.73;;;3.00;;
74369;SDS011;71062;44.520;11.342;2023-10-09T05:50:26;7.85;;;2.65;;
74369;SDS011;71062;44.520;11.342;2023-10-09T05:52:53;9.15;;;2.83;;
74369;SDS011;71062;44.520;11.342;2023-10-09T05:55:20;10.90;;;2.88;;
74369;SDS011;71062;44.520;11.342;2023-10-09T05:57:53;10.40;;;3.00;;
74369;SDS011;71062;44.520;11.342;2023-10-09T06:00:28;11.27;;;3.03;;
74369;SDS011;71062;44.520;11.342;2023-10-09T06:03:12;10.40;;;2.97;;
74369;SDS011;71062;44.520;11.342;2023-10-09T06:05:51;8.05;;;2.80;;
74369;SDS011;71062;44.520;11.342;2023-10-09T06:08:26;13.98;;;3.10;;
74369;SDS011;71062;44.520;11.342;2023-10-09T06:11:06;9.07;;;2.70;;
74369;SDS011;71062;44.520;11.342;2023-10-09T06:13:51;10.32;;;2.85;;
74369;SDS011;71062;44.520;11.342;2023-10-09T06:16:28;10.10;;;3.05;;
74369;SDS011;71062;44.520;11.342;2023-10-09T06:19:06;10.45;;;2.38;;
74369;SDS011;71062;44.520;11.342;2023-10-09T06:21:45;10.25;;;3.10;;
74369;SDS011;71062;44.520;11.342;2023-10-09T06:24:17;10.65;;;2.55;;
74369;SDS011;71062;44.520;11.342;2023-10-09T06:26:47;11.10;;;3.72;;
74369;SDS011;71062;44.520;11.342;2023-10-09T06:29:27;9.32;;;2.88;;
74369;SDS011;71062;44.520;11.342;2023-10-09T06:32:10;15.57;;;3.30;;
74369;SDS011;71062;44.520;11.342;2023-10-09T06:34:56;13.02;;;2.95;;
74369;SDS011;71062;44.520;11.342;2023-10-09T06:37:45;8.07;;;2.70;;
74369;SDS011;71062;44.520;11.342;2023-10-09T06:40:29;9.50;;;2.58;;
74369;SDS011;71062;44.520;11.342;2023-10-09T06:43:05;11.35;;;2.60;;
74369;SDS011;71062;44.520;11.342;2023-10-09T06:45:38;10.05;;;2.80;;
74369;SDS011;71062;44.520;11.342;2023-10-09T06:48:09;11.52;;;2.95;;
74369;SDS011;71062;44.520;11.342;2023-10-09T06:50:55;20.83;;;3.47;;
74369;SDS011;71062;44.520;11.342;2023-10-09T06:53:39;7.10;;;2.47;;
74369;SDS011;71062;44.520;11.342;2023-10-09T06:59:06;12.57;;;2.83;;
74369;SDS011;71062;44.520;11.342;2023-10-09T07:01:46;15.13;;;2.92;;
74369;SDS011;71062;44.520;11.342;2023-10-09T07:04:16;11.77;;;2.80;;
74369;SDS011;71062;44.520;11.342;2023-10-09T07:09:10;11.38;;;2.90;;
74369;SDS011;71062;44.520;11.342;2023-10-09T07:11:37;15.25;;;3.53;;
74369;SDS011;71062;44.520;11.342;2023-10-09T07:19:32;13.48;;;3.15;;
74369;SDS011;71062;44.520;11.342;2023-10-09T07:22:20;17.42;;;3.60;;
74369;SDS011;71062;44.520;11.342;2023-10-09T07:24:50;13.90;;;2.88;;
74369;SDS011;71062;44.520;11.342;2023-10-09T07:27:31;16.17;;;3.00;;
74369;SDS011;71062;44.520;11.342;2023-10-09T07:30:14;16.35;;;3.30;;
74369;SDS011;71062;44.520;11.342;2023-10-09T07:33:00;19.88;;;3.53;;
74369;SDS011;71062;44.520;11.342;2023-10-09T07:35:36;12.05;;;3.17;;
74369;SDS011;71062;44.520;11.342;2023-10-09T07:38:10;12.32;;;3.00;;
74369;SDS011;71062;44.520;11.342;2023-10-09T07:40:40;17.85;;;3.45;;
74369;SDS011;71062;44.520;11.342;2023-10-09T07:43:34;23.05;;;3.60;;
74369;SDS011;71062;44.520;11.342;2023-10-09T07:46:14;14.65;;;3.33;;
74369;SDS011;71062;44.520;11.342;2023-10-09T07:49:03;14.20;;;3.13;;
74369;SDS011;71062;44.520;11.342;2023-10-09T07:51:37;11.02;;;3.08;;
74369;SDS011;71062;44.520;11.342;2023-10-09T07:54:04;12.25;;;3.50;;
74369;SDS011;71062;44.520;11.342;2023-10-09T07:56:33;10.55;;;3.10;;
74369;SDS011;71062;44.520;11.342;2023-10-09T07:59:06;15.07;;;3.55;;
74369;SDS011;71062;44.520;11.342;2023-10-09T08:01:40;15.18;;;3.60;;
74369;SDS011;71062;44.520;11.342;2023-10-09T08:04:17;12.23;;;3.50;;
74369;SDS011;71062;44.520;11.342;2023-10-09T08:07:07;10.50;;;3.00;;
74369;SDS011;71062;44.520;11.342;2023-10-09T08:09:35;20.23;;;3.63;;
74369;SDS011;71062;44.520;11.342;2023-10-09T08:12:15;12.35;;;3.35;;
74369;SDS011;71062;44.520;11.342;2023-10-09T08:15:19;11.55;;;2.92;;
74369;SDS011;71062;44.520;11.342;2023-10-09T08:20:35;7.95;;;2.90;;
74369;SDS011;71062;44.520;11.342;2023-10-09T08:23:20;14.02;;;2.97;;
74369;SDS011;71062;44.520;11.342;2023-10-09T08:26:04;10.10;;;3.10;;
74369;SDS011;71062;44.520;11.342;2023-10-09T08:28:42;17.40;;;3.15;;
74369;SDS011;71062;44.520;11.342;2023-10-09T08:31:10;13.63;;;3.17;;
74369;SDS011;71062;44.520;11.342;2023-10-09T08:33:55;18.35;;;3.00;;
74369;SDS011;71062;44.520;11.342;2023-10-09T08:36:26;13.05;;;2.65;;
74369;SDS011;71062;44.520;11.342;2023-10-09T08:38:56;10.00;;;3.42;;
74369;SDS011;71062;44.520;11.342;2023-10-09T08:41:24;11.35;;;3.15;;
74369;SDS011;71062;44.520;11.342;2023-10-09T08:43:55;10.23;;;2.92;;
74369;SDS011;71062;44.520;11.342;2023-10-09T08:46:26;16.60;;;3.47;;
74369;SDS011;71062;44.520;11.342;2023-10-09T08:48:54;12.25;;;3.20;;
74369;SDS011;71062;44.520;11.342;2023-10-09T08:51:20;10.73;;;2.60;;
74369;SDS011;71062;44.520;11.342;2023-10-09T08:53:48;9.10;;;3.03;;
74369;SDS011;71062;44.520;11.342;2023-10-09T08:56:18;14.95;;;3.35;;
74369;SDS011;71062;44.520;11.342;2023-10-09T08:58:56;11.63;;;3.28;;
74369;SDS011;71062;44.520;11.342;2023-10-09T09:01:23;13.85;;;3.13;;
74369;SDS011;71062;44.520;11.342;2023-10-09T09:03:50;20.20;;;3.70;;
74369;SDS011;71062;44.520;11.342;2023-10-09T09:06:17;13.45;;;2.90;;
74369;SDS011;71062;44.520;11.342;2023-10-09T09:08:44;14.27;;;3.15;;
74369;SDS011;71062;44.520;11.342;2023-10-09T09:13:41;14.07;;;3.05;;
74369;SDS011;71062;44.520;11.342;2023-10-09T09:16:14;13.35;;;3.00;;
74369;SDS011;71062;44.520;11.342;2023-10-09T09:18:51;15.85;;;3.35;;
74369;SDS011;71062;44.520;11.342;2023-10-09T09:21:36;11.80;;;3.13;;
74369;SDS011;71062;44.520;11.342;2023-10-09T09:24:07;11.90;;;2.42;;
74369;SDS011;71062;44.520;11.342;2023-10-09T09:27:00;12.98;;;3.25;;
74369;SDS011;71062;44.520;11.342;2023-10-09T09:29:43;13.18;;;2.97;;
74369;SDS011;71062;44.520;11.342;2023-10-09T09:32:25;16.08;;;3.20;;
74369;SDS011;71062;44.520;11.342;2023-10-09T09:34:55;11.00;;;2.97;;
74369;SDS011;71062;44.520;11.342;2023-10-09T09:37:29;12.18;;;3.00;;
74369;SDS011;71062;44.520;11.342;2023-10-09T09:40:17;18.40;;;2.88;;
74369;SDS011;71062;44.520;11.342;2023-10-09T09:42:58;19.13;;;3.20;;
74369;SDS011;71062;44.520;11.342;2023-10-09T09:45:35;14.38;;;3.38;;
74369;SDS011;71062;44.520;11.342;2023-10-09T09:48:02;15.25;;;3.13;;
74369;SDS011;71062;44.520;11.342;2023-10-09T09:50:34;20.65;;;4.00;;
74369;SDS011;71062;44.520;11.342;2023-10-09T09:53:08;19.23;;;3.30;;
74369;SDS011;71062;44.520;11.342;2023-10-09T09:55:41;14.30;;;3.63;;
74369;SDS011;71062;44.520;11.342;2023-10-09T09:58:17;11.25;;;2.70;;
74369;SDS011;71062;44.520;11.342;2023-10-09T10:00:46;20.35;;;3.42;;
74369;SDS011;71062;44.520;11.342;2023-10-09T10:03:21;17.73;;;2.88;;
74369;SDS011;71062;44.520;11.342;2023-10-09T10:05:52;9.98;;;2.78;;
74369;SDS011;71062;44.520;11.342;2023-10-09T10:08:22;18.92;;;3.40;;
74369;SDS011;71062;44.520;11.342;2023-10-09T10:11:24;15.10;;;3.65;;
74369;SDS011;71062;44.520;11.342;2023-10-09T10:14:13;14.88;;;3.55;;
74369;SDS011;71062;44.520;11.342;2023-10-09T10:17:03;12.48;;;3.47;;
74369;SDS011;71062;44.520;11.342;2023-10-09T10:22:28;11.85;;;2.75;;
74369;SDS011;71062;44.520;11.342;2023-10-09T10:24:58;15.48;;;3.60;;
74369;SDS011;71062;44.520;11.342;2023-10-09T10:27:27;11.77;;;3.05;;
74369;SDS011;71062;44.520;11.342;2023-10-09T10:35:23;13.38;;;2.90;;
74369;SDS011;71062;44.520;11.342;2023-10-09T10:41:08;16.75;;;3.22;;
74369;SDS011;71062;44.520;11.342;2023-10-09T10:43:46;11.50;;;3.67;;
74369;SDS011;71062;44.520;11.342;2023-10-09T10:46:21;13.50;;;2.85;;
74369;SDS011;71062;44.520;11.342;2023-10-09T10:49:04;11.15;;;2.55;;
74369;SDS011;71062;44.520;11.342;2023-10-09T10:51:40;10.45;;;3.13;;
74369;SDS011;71062;44.520;11.342;2023-10-09T10:54:21;15.27;;;3.10;;
74369;SDS011;71062;44.520;11.342;2023-10-09T10:56:57;15.70;;;2.97;;
74369;SDS011;71062;44.520;11.342;2023-10-09T10:59:23;13.48;;;3.15;;
74369;SDS011;71062;44.520;11.342;2023-10-09T11:01:51;19.52;;;3.33;;
74369;SDS011;71062;44.520;11.342;2023-10-09T11:04:39;12.00;;;2.95;;
74369;SDS011;71062;44.520;11.342;2023-10-09T11:07:07;10.30;;;3.13;;
74369;SDS011;71062;44.520;11.342;2023-10-09T11:09:47;25.10;;;3.72;;
74369;SDS011;71062;44.520;11.342;2023-10-09T11:12:23;14.68;;;3.05;;
74369;SDS011;71062;44.520;11.342;2023-10-09T11:14:49;16.50;;;3.25;;
74369;SDS011;71062;44.520;11.342;2023-10-09T11:17:35;15.48;;;3.20;;
74369;SDS011;71062;44.520;11.342;2023-10-09T11:20:06;9.48;;;2.80;;
74369;SDS011;71062;44.520;11.342;2023-10-09T11:22:57;14.98;;;3.13;;
74369;SDS011;71062;44.520;11.342;2023-10-09T11:25:38;13.90;;;3.30;;
74369;SDS011;71062;44.520;11.342;2023-10-09T11:28:19;17.75;;;3.40;;
74369;SDS011;71062;44.520;11.342;2023-10-09T11:31:10;14.90;;;3.13;;
74369;SDS011;71062;44.520;11.342;2023-10-09T11:33:45;18.13;;;3.80;;
74369;SDS011;71062;44.520;11.342;2023-10-09T11:36:16;18.48;;;4.15;;
74369;SDS011;71062;44.520;11.342;2023-10-09T11:39:01;13.93;;;3.20;;
74369;SDS011;71062;44.520;11.342;2023-10-09T11:41:43;16.83;;;3.88;;
74369;SDS011;71062;44.520;11.342;2023-10-09T11:44:09;17.80;;;3.70;;
74369;SDS011;71062;44.520;11.342;2023-10-09T11:46:57;14.00;;;3.17;;
74369;SDS011;71062;44.520;11.342;2023-10-09T11:49:23;16.50;;;3.83;;
74369;SDS011;71062;44.520;11.342;2023-10-09T11:52:08;17.40;;;3.67;;
74369;SDS011;71062;44.520;11.342;2023-10-09T11:54:36;13.75;;;3.63;;
74369;SDS011;71062;44.520;11.342;2023-10-09T11:57:02;19.77;;;3.35;;
74369;SDS011;71062;44.520;11.342;2023-10-09T11:59:29;13.30;;;2.90;;
74369;SDS011;71062;44.520;11.342;2023-10-09T12:02:07;17.58;;;3.65;;
74369;SDS011;71062;44.520;11.342;2023-10-09T12:04:38;13.98;;;3.42;;
74369;SDS011;71062;44.520;11.342;2023-10-09T12:07:21;18.20;;;3.90;;
74369;SDS011;71062;44.520;11.342;2023-10-09T12:09:50;18.38;;;4.25;;
74369;SDS011;71062;44.520;11.342;2023-10-09T12:12:21;14.18;;;3.08;;
74369;SDS011;71062;44.520;11.342;2023-10-09T12:14:51;21.00;;;3.70;;
74369;SDS011;71062;44.520;11.342;2023-10-09T12:17:18;14.40;;;3.60;;
74369;SDS011;71062;44.520;11.342;2023-10-09T12:19:43;18.13;;;3.50;;
74369;SDS011;71062;44.520;11.342;2023-10-09T12:22:09;16.27;;;2.92;;
74369;SDS011;71062;44.520;11.342;2023-10-09T12:24:41;15.43;;;3.72;;
74369;SDS011;71062;44.520;11.342;2023-10-09T12:27:10;14.25;;;3.55;;
74369;SDS011;71062;44.520;11.342;2023-10-09T12:29:36;13.52;;;3.78;;
74369;SDS011;71062;44.520;11.342;2023-10-09T12:32:03;16.15;;;3.67;;
74369;SDS011;71062;44.520;11.342;2023-10-09T12:34:29;13.57;;;3.05;;
74369;SDS011;71062;44.520;11.342;2023-10-09T12:36:57;13.38;;;3.40;;
74369;SDS011;71062;44.520;11.342;2023-10-09T12:39:26;12.88;;;3.30;;
74369;SDS011;71062;44.520;11.342;2023-10-09T12:41:58;14.43;;;2.90;;
74369;SDS011;71062;44.520;11.342;2023-10-09T12:44:32;21.08;;;3.53;;
74369;SDS011;71062;44.520;11.342;2023-10-09T12:47:04;16.80;;;3.17;;
74369;SDS011;71062;44.520;11.342;2023-10-09T12:49:31;14.65;;;3.25;;
74369;SDS011;71062;44.520;11.342;2023-10-09T12:51:57;12.48;;;3.17;;
74369;SDS011;71062;44.520;11.342;2023-10-09T12:54:26;11.60;;;3.10;;
74369;SDS011;71062;44.520;11.342;2023-10-09T12:56:52;19.90;;;4.07;;
74369;SDS011;71062;44.520;11.342;2023-10-09T12:59:19;13.05;;;3.53;;
74369;SDS011;71062;44.520;11.342;2023-10-09T13:01:46;14.65;;;3.20;;
74369;SDS011;71062;44.520;11.342;2023-10-09T13:04:17;17.50;;;3.30;;
74369;SDS011;71062;44.520;11.342;2023-10-09T13:06:43;16.88;;;3.10;;
74369;SDS011;71062;44.520;11.342;2023-10-09T13:09:13;19.10;;;3.85;;
74369;SDS011;71062;44.520;11.342;2023-10-09T13:11:40;13.57;;;4.15;;
74369;SDS011;71062;44.520;11.342;2023-10-09T13:14:06;13.02;;;3.40;;
74369;SDS011;71062;44.520;11.342;2023-10-09T13:16:52;13.57;;;3.70;;
74369;SDS011;71062;44.520;11.342;2023-10-09T13:19:18;14.52;;;3.60;;
74369;SDS011;71062;44.520;11.342;2023-10-09T13:24:09;15.98;;;3.60;;
74369;SDS011;71062;44.520;11.342;2023-10-09T13:26:38;13.40;;;3.22;;
74369;SDS011;71062;44.520;11.342;2023-10-09T13:29:06;17.98;;;3.72;;
74369;SDS011;71062;44.520;11.342;2023-10-09T13:31:34;15.55;;;3.22;;
74369;SDS011;71062;44.520;11.342;2023-10-09T13:34:03;15.70;;;3.78;;
74369;SDS011;71062;44.520;11.342;2023-10-09T13:36:31;14.02;;;3.30;;
74369;SDS011;71062;44.520;11.342;2023-10-09T13:39:02;15.75;;;3.60;;
74369;SDS011;71062;44.520;11.342;2023-10-09T13:41:52;21.35;;;3.75;;
74369;SDS011;71062;44.520;11.342;2023-10-09T13:46:52;13.00;;;3.33;;
74369;SDS011;71062;44.520;11.342;2023-10-09T13:49:21;15.75;;;3.80;;
74369;SDS011;71062;44.520;11.342;2023-10-09T13:51:48;18.60;;;3.67;;
74369;SDS011;71062;44.520;11.342;2023-10-09T13:54:15;14.60;;;3.53;;
74369;SDS011;71062;44.520;11.342;2023-10-09T13:56:54;17.52;;;3.05;;
74369;SDS011;71062;44.520;11.342;2023-10-09T14:01:48;23.73;;;3.58;;
74369;SDS011;71062;44.520;11.342;2023-10-09T14:04:19;17.27;;;3.30;;
74369;SDS011;71062;44.520;11.342;2023-10-09T14:06:45;11.73;;;2.97;;
74369;SDS011;71062;44.520;11.342;2023-10-09T14:09:12;12.10;;;3.15;;
74369;SDS011;71062;44.520;11.342;2023-10-09T14:11:56;12.15;;;3.17;;
74369;SDS011;71062;44.520;11.342;2023-10-09T14:14:41;20.88;;;3.70;;
74369;SDS011;71062;44.520;11.342;2023-10-09T14:17:14;17.45;;;3.65;;
74369;SDS011;71062;44.520;11.342;2023-10-09T14:19:44;19.90;;;4.00;;
74369;SDS011;71062;44.520;11.342;2023-10-09T14:22:13;16.58;;;3.95;;
74369;SDS011;71062;44.520;11.342;2023-10-09T14:24:45;14.82;;;3.63;;
74369;SDS011;71062;44.520;11.342;2023-10-09T14:27:12;16.30;;;4.07;;
74369;SDS011;71062;44.520;11.342;2023-10-09T14:32:10;10.57;;;3.45;;
74369;SDS011;71062;44.520;11.342;2023-10-09T14:34:38;16.05;;;3.15;;
74369;SDS011;71062;44.520;11.342;2023-10-09T14:37:08;17.90;;;3.40;;
74369;SDS011;71062;44.520;11.342;2023-10-09T14:39:39;24.17;;;3.08;;
74369;SDS011;71062;44.520;11.342;2023-10-09T14:42:05;15.18;;;3.70;;
74369;SDS011;71062;44.520;11.342;2023-10-09T14:44:36;16.38;;;3.40;;
74369;SDS011;71062;44.520;11.342;2023-10-09T14:47:04;0.00;;;0.00;;
74369;SDS011;71062;44.520;11.342;2023-10-09T14:49:33;0.00;;;0.00;;
74369;SDS011;71062;44.520;11.342;2023-10-09T14:52:02;13.63;;;3.08;;
74369;SDS011;71062;44.520;11.342;2023-10-09T14:54:28;17.63;;;4.07;;
74369;SDS011;71062;44.520;11.342;2023-10-09T14:56:54;12.65;;;3.63;;
74369;SDS011;71062;44.520;11.342;2023-10-09T14:59:19;12.32;;;3.17;;
74369;SDS011;71062;44.520;11.342;2023-10-09T15:01:47;17.92;;;3.40;;
74369;SDS011;71062;44.520;11.342;2023-10-09T15:04:15;15.52;;;3.35;;
74369;SDS011;71062;44.520;11.342;2023-10-09T15:06:41;16.58;;;3.72;;
74369;SDS011;71062;44.520;11.342;2023-10-09T15:09:06;16.83;;;3.38;;
74369;SDS011;71062;44.520;11.342;2023-10-09T15:11:46;18.00;;;3.83;;
74369;SDS011;71062;44.520;11.342;2023-10-09T15:14:13;20.45;;;3.83;;
74369;SDS011;71062;44.520;11.342;2023-10-09T15:16:39;13.85;;;3.47;;
74369;SDS011;71062;44.520;11.342;2023-10-09T15:19:04;19.30;;;4.30;;
74369;SDS011;71062;44.520;11.342;2023-10-09T15:21:30;18.08;;;3.20;;
74369;SDS011;71062;44.520;11.342;2023-10-09T15:23:58;13.75;;;3.78;;
74369;SDS011;71062;44.520;11.342;2023-10-09T15:26:24;17.27;;;3.15;;
74369;SDS011;71062;44.520;11.342;2023-10-09T15:28:53;20.17;;;3.55;;
74369;SDS011;71062;44.520;11.342;2023-10-09T15:31:18;17.65;;;3.72;;
74369;SDS011;71062;44.520;11.342;2023-10-09T15:33:46;16.50;;;3.35;;
74369;SDS011;71062;44.520;11.342;2023-10-09T15:36:15;17.95;;;3.10;;
74369;SDS011;71062;44.520;11.342;2023-10-09T15:38:45;17.95;;;3.25;;
74369;SDS011;71062;44.520;11.342;2023-10-09T15:41:13;17.40;;;3.20;;
74369;SDS011;71062;44.520;11.342;2023-10-09T15:43:41;16.20;;;3.22;;
74369;SDS011;71062;44.520;11.342;2023-10-09T15:46:13;15.63;;;3.80;;
74369;SDS011;71062;44.520;11.342;2023-10-09T15:48:40;16.13;;;3.70;;
74369;SDS011;71062;44.520;11.342;2023-10-09T15:51:10;10.52;;;3.25;;
74369;SDS011;71062;44.520;11.342;2023-10-09T15:53:42;17.30;;;3.67;;